Terminal Aerodrome Forecast
Issued by NWS Sioux Falls, SD

Home | Current Version | Previous Version | Text Only | Print | Product List | Glossary Off
Versions: 1 2 3 4 5 6 7 8 9 10 11 12 13 14 15 16 17 18

377
FTUS43 KFSD 290520
TAFFSD
TAF
KFSD 290520Z 2906/3006 04007KT P6SM OVC008
     FM290800 03004KT 4SM BR OVC005
     FM291400 06009KT P6SM OVC012
     FM291900 06010KT P6SM OVC035=

USA.gov is the U.S. government's official web portal to all federal, state and local government web resources and services.